createdAt,value
2022-11-20T00:00:57.465Z,6.47
2022-11-20T00:04:01.797Z,6.17
2022-11-20T00:07:04.556Z,6.03
2022-11-20T00:10:07.707Z,6.32
2022-11-20T00:13:10.419Z,7.25
2022-11-20T00:16:14.640Z,6.07
2022-11-20T00:19:18.910Z,7.27
2022-11-20T00:22:21.717Z,6.83
2022-11-20T00:25:24.315Z,7.23
2022-11-20T00:28:26.872Z,6.63
2022-11-20T00:31:30.155Z,7.03
2022-11-20T00:34:34.114Z,6.75
2022-11-20T00:37:36.695Z,7.83
2022-11-20T00:40:39.361Z,7.17
2022-11-20T00:43:42.202Z,6.83
2022-11-20T00:46:44.783Z,6.40
2022-11-20T00:49:48.872Z,6.97
2022-11-20T00:52:51.395Z,4.50
2022-11-20T00:55:57.916Z,3.20
2022-11-20T00:59:02.866Z,3.50
2022-11-20T01:02:05.433Z,3.00
2022-11-20T01:05:09.807Z,2.90
2022-11-20T01:08:12.733Z,2.60
2022-11-20T01:11:16.895Z,3.13
2022-11-20T01:14:21.237Z,2.80
2022-11-20T01:17:24.018Z,2.10
2022-11-20T01:20:27.957Z,2.13
2022-11-20T01:23:33.280Z,1.90
2022-11-20T01:26:37.982Z,1.93
2022-11-20T01:29:40.571Z,1.93
2022-11-20T01:32:43.182Z,1.80
2022-11-20T01:35:47.158Z,2.00
2022-11-20T01:38:49.832Z,3.13
2022-11-20T01:42:11.033Z,2.60
2022-11-20T01:45:51.283Z,2.40
2022-11-20T01:48:56.677Z,3.77
2022-11-20T01:52:03.731Z,4.17
2022-11-20T01:55:10.097Z,5.60
2022-11-20T01:58:13.937Z,4.77
2022-11-20T02:01:16.907Z,5.50
2022-11-20T02:04:20.170Z,4.65
2022-11-20T02:07:24.760Z,2.63
2022-11-20T02:10:28.061Z,2.33
2022-11-20T02:13:45.622Z,2.85
2022-11-20T02:16:49.558Z,2.20
2022-11-20T02:19:52.470Z,2.00
2022-11-20T02:22:59.879Z,1.60
2022-11-20T02:26:05.639Z,1.73
2022-11-20T02:29:08.265Z,1.63
2022-11-20T02:32:20.466Z,1.57
2022-11-20T02:35:44.265Z,1.80
2022-11-20T02:38:47.050Z,1.60
2022-11-20T02:41:51.085Z,2.33
2022-11-20T02:44:53.678Z,1.93
2022-11-20T02:47:56.279Z,1.67
2022-11-20T02:50:58.905Z,1.93
2022-11-20T02:54:01.473Z,1.63
2022-11-20T02:57:05.459Z,1.43
2022-11-20T03:00:09.520Z,1.50
2022-11-20T03:03:12.252Z,1.60
2022-11-20T03:06:14.844Z,2.23
2022-11-20T03:09:17.426Z,1.50
2022-11-20T03:12:21.377Z,1.87
2022-11-20T03:15:24.040Z,1.60
2022-11-20T03:18:26.663Z,1.60
2022-11-20T03:21:29.320Z,1.60
2022-11-20T03:24:31.903Z,1.60
2022-11-20T03:27:36.719Z,2.03
2022-11-20T03:30:39.294Z,1.70
2022-11-20T03:33:42.720Z,2.20
2022-11-20T03:36:45.365Z,2.28
2022-11-20T03:39:47.919Z,1.80
2022-11-20T03:42:51.932Z,2.20
2022-11-20T03:45:54.499Z,1.90
2022-11-20T03:48:57.467Z,2.40
2022-11-20T03:52:00.031Z,2.03
2022-11-20T03:55:02.593Z,2.33
2022-11-20T03:58:06.462Z,2.13
2022-11-20T04:01:09.846Z,3.07
2022-11-20T04:04:12.523Z,2.80
2022-11-20T04:07:15.100Z,2.23
2022-11-20T04:10:17.969Z,2.53
2022-11-20T04:13:21.864Z,2.20
2022-11-20T04:16:25.944Z,2.30
2022-11-20T04:19:28.665Z,2.23
2022-11-20T04:22:31.309Z,2.10
2022-11-20T04:25:34.069Z,2.60
2022-11-20T04:28:38.394Z,2.10
2022-11-20T04:31:41.050Z,2.57
2022-11-20T04:34:43.651Z,2.20
2022-11-20T04:37:46.208Z,2.27
2022-11-20T04:40:48.773Z,2.07
2022-11-20T04:43:54.195Z,2.27
2022-11-20T04:46:56.708Z,2.03
2022-11-20T04:49:59.382Z,2.20
2022-11-20T04:53:01.944Z,1.83
2022-11-20T04:56:06.393Z,2.10
2022-11-20T04:59:10.332Z,2.30
2022-11-20T05:02:12.994Z,2.47
2022-11-20T05:05:15.801Z,3.30
2022-11-20T05:08:18.377Z,2.67
2022-11-20T05:11:22.186Z,2.50
2022-11-20T05:14:26.258Z,2.00
2022-11-20T05:17:28.947Z,1.80
2022-11-20T05:20:31.585Z,2.97
2022-11-20T05:23:34.625Z,1.70
2022-11-20T05:26:37.183Z,2.47
2022-11-20T05:29:41.271Z,2.53
2022-11-20T05:32:43.855Z,2.57
2022-11-20T05:35:46.851Z,1.60
2022-11-20T05:38:51.218Z,2.20
2022-11-20T05:42:14.147Z,1.97
2022-11-20T05:45:18.471Z,3.00
2022-11-20T05:48:21.221Z,2.30
2022-11-20T05:51:23.813Z,2.20
2022-11-20T05:54:26.434Z,2.23
2022-11-20T05:57:29.045Z,2.00
2022-11-20T06:00:33.012Z,2.30
2022-11-20T06:03:35.636Z,2.33
2022-11-20T06:06:38.198Z,2.00
2022-11-20T06:09:40.781Z,2.00
2022-11-20T06:12:43.331Z,1.70
2022-11-20T06:15:51.794Z,1.90
2022-11-20T06:18:54.477Z,3.77
2022-11-20T06:21:57.021Z,1.60
2022-11-20T06:24:59.627Z,1.60
2022-11-20T06:28:02.319Z,1.90
2022-11-20T06:31:07.216Z,1.83
2022-11-20T06:34:10.456Z,1.60
2022-11-20T06:37:13.066Z,1.55
2022-11-20T06:40:15.655Z,1.80
2022-11-20T06:43:18.410Z,1.40
2022-11-20T06:46:22.565Z,1.60
2022-11-20T06:49:26.151Z,1.30
2022-11-20T06:52:28.770Z,1.40
2022-11-20T06:55:31.603Z,1.53
2022-11-20T06:58:35.285Z,1.38
2022-11-20T07:01:39.227Z,1.23
2022-11-20T07:04:41.924Z,1.60
2022-11-20T07:07:44.545Z,1.40
2022-11-20T07:10:47.153Z,1.50
2022-11-20T07:13:49.719Z,1.70
2022-11-20T07:16:53.663Z,1.73
2022-11-20T07:19:56.300Z,1.40
2022-11-20T07:22:59.584Z,1.47
2022-11-20T07:26:05.228Z,1.30
2022-11-20T07:29:07.931Z,1.37
2022-11-20T07:32:11.807Z,1.53
2022-11-20T07:35:14.604Z,1.30
2022-11-20T07:38:17.356Z,1.15
2022-11-20T07:41:19.951Z,1.93
2022-11-20T07:44:22.551Z,1.30
2022-11-20T07:47:27.195Z,1.27
2022-11-20T07:50:29.864Z,1.20
2022-11-20T07:53:32.424Z,1.20
2022-11-20T07:56:35.369Z,1.27
2022-11-20T07:59:37.972Z,1.20
2022-11-20T08:02:42.339Z,1.27
2022-11-20T08:05:44.975Z,1.30
2022-11-20T08:08:47.575Z,1.30
2022-11-20T08:12:07.865Z,1.50
2022-11-20T08:15:13.381Z,1.20
2022-11-20T08:18:33.863Z,1.30
2022-11-20T08:21:38.497Z,1.37
2022-11-20T08:24:41.347Z,1.40
2022-11-20T08:27:43.946Z,0.93
2022-11-20T08:30:46.916Z,1.10
2022-11-20T08:33:51.082Z,1.10
2022-11-20T08:36:53.752Z,1.00
2022-11-20T08:39:58.103Z,1.00
2022-11-20T08:43:00.969Z,1.40
2022-11-20T08:46:03.707Z,1.10
2022-11-20T08:49:08.557Z,0.77
2022-11-20T08:52:11.274Z,1.10
2022-11-20T08:55:14.224Z,0.73
2022-11-20T08:58:16.807Z,1.45
2022-11-20T09:01:19.750Z,1.10
2022-11-20T09:04:23.862Z,0.90
2022-11-20T09:07:26.673Z,1.20
2022-11-20T09:10:29.842Z,0.70
2022-11-20T09:13:33.407Z,1.20
2022-11-20T09:16:36.021Z,1.08
2022-11-20T09:19:40.131Z,1.10
2022-11-20T09:22:42.908Z,1.10
2022-11-20T09:25:45.888Z,0.60
2022-11-20T09:28:48.534Z,0.90
2022-11-20T09:31:51.112Z,0.80
2022-11-20T09:34:55.009Z,0.80
2022-11-20T09:37:57.852Z,0.60
2022-11-20T09:41:04.697Z,0.90
2022-11-20T09:44:18.715Z,0.87
2022-11-20T09:47:28.977Z,0.73
2022-11-20T09:50:35.182Z,0.53
2022-11-20T09:53:48.427Z,0.50
2022-11-20T09:56:53.821Z,0.60
2022-11-20T09:59:58.603Z,0.80
2022-11-20T10:03:03.890Z,0.57
2022-11-20T10:06:12.475Z,0.50
2022-11-20T10:09:23.236Z,0.70
2022-11-20T10:12:30.154Z,0.70
2022-11-20T10:15:36.485Z,0.50
2022-11-20T10:18:51.608Z,0.50
2022-11-20T10:22:01.824Z,0.53
2022-11-20T10:25:08.757Z,0.60
2022-11-20T10:28:30.821Z,0.70
2022-11-20T10:31:35.931Z,0.53
2022-11-20T10:34:46.932Z,0.80
2022-11-20T10:37:55.488Z,0.87
2022-11-20T10:41:20.782Z,0.80
2022-11-20T10:44:44.579Z,0.87
2022-11-20T10:47:47.288Z,0.52
2022-11-20T10:51:05.961Z,0.90
2022-11-20T10:54:20.911Z,0.77
2022-11-20T10:57:34.174Z,0.70
2022-11-20T11:00:36.926Z,0.77
2022-11-20T11:03:39.663Z,0.85
2022-11-20T11:06:46.028Z,0.97
2022-11-20T11:09:51.663Z,1.90
2022-11-20T11:12:54.283Z,1.60
2022-11-20T11:15:57.671Z,0.87
2022-11-20T11:19:06.583Z,0.90
2022-11-20T11:22:13.408Z,1.20
2022-11-20T11:25:29.999Z,1.23
2022-11-20T11:28:33.056Z,1.10
2022-11-20T11:31:36.675Z,1.60
2022-11-20T11:34:39.455Z,1.60
2022-11-20T11:37:42.075Z,1.92
2022-11-20T11:40:46.168Z,1.77
2022-11-20T11:44:12.135Z,1.00
2022-11-20T11:47:23.249Z,1.37
2022-11-20T11:50:26.897Z,1.23
2022-11-20T11:56:35.342Z,1.10
2022-11-20T11:59:46.585Z,1.20
2022-11-20T12:02:58.287Z,1.17
2022-11-20T12:06:04.063Z,1.10
2022-11-20T12:09:10.427Z,1.40
2022-11-20T12:12:19.523Z,1.50
2022-11-20T12:15:29.007Z,0.80
2022-11-20T12:18:31.882Z,0.90
2022-11-20T12:21:40.508Z,1.00
2022-11-20T12:24:49.205Z,0.90
2022-11-20T12:28:03.971Z,0.83
2022-11-20T12:31:23.457Z,0.77
2022-11-20T12:34:54.937Z,1.13
2022-11-20T12:38:08.582Z,0.90
2022-11-20T12:41:36.435Z,0.60
2022-11-20T12:45:12.239Z,0.80
2022-11-20T12:48:30.986Z,2.47
2022-11-20T12:51:57.269Z,0.67
2022-11-20T12:55:26.047Z,0.70
2022-11-20T12:58:35.630Z,0.70
2022-11-20T13:01:43.730Z,0.80
2022-11-20T13:05:08.249Z,0.70
2022-11-20T13:08:17.299Z,0.60
2022-11-20T13:11:25.336Z,0.40
2022-11-20T13:14:34.260Z,0.43
2022-11-20T13:17:42.515Z,0.50
2022-11-20T13:20:46.178Z,0.70
2022-11-20T13:27:02.461Z,0.70
2022-11-20T13:30:18.108Z,0.88
2022-11-20T13:33:29.617Z,1.20
2022-11-20T13:36:33.321Z,0.97
2022-11-20T13:39:38.143Z,0.53
2022-11-20T13:42:42.576Z,0.80
2022-11-20T13:45:56.758Z,0.40
2022-11-20T13:49:02.497Z,0.50
2022-11-20T13:52:22.997Z,0.60
2022-11-20T13:55:31.093Z,0.50
2022-11-20T13:58:45.734Z,0.50
2022-11-20T14:01:48.606Z,0.70
2022-11-20T14:04:54.641Z,0.75
2022-11-20T14:07:58.220Z,0.70
2022-11-20T14:11:08.822Z,0.60
2022-11-20T14:14:17.968Z,0.50
2022-11-20T14:17:22.337Z,0.83
2022-11-20T14:20:29.609Z,0.80
2022-11-20T14:23:32.176Z,0.70
2022-11-20T14:26:35.156Z,0.63
2022-11-20T14:29:39.619Z,1.02
2022-11-20T14:32:43.500Z,0.60
2022-11-20T14:35:49.366Z,1.03
2022-11-20T14:38:52.903Z,0.97
2022-11-20T14:41:56.150Z,1.08
2022-11-20T14:45:00.109Z,0.82
2022-11-20T14:48:05.657Z,0.90
2022-11-20T14:51:11.412Z,0.90
2022-11-20T14:54:16.962Z,0.80
2022-11-20T14:57:26.305Z,0.90
2022-11-20T15:00:29.536Z,0.80
2022-11-20T15:03:36.519Z,1.15
2022-11-20T15:06:51.924Z,1.10
2022-11-20T15:10:05.614Z,0.93
2022-11-20T15:13:14.094Z,0.80
2022-11-20T15:16:20.040Z,1.10
2022-11-20T15:19:24.102Z,1.20
2022-11-20T15:22:28.080Z,0.80
2022-11-20T15:25:31.395Z,1.27
2022-11-20T15:28:35.918Z,1.63
2022-11-20T15:31:38.820Z,1.10
2022-11-20T15:34:41.687Z,1.08
2022-11-20T15:37:45.940Z,1.20
2022-11-20T15:40:48.602Z,1.10
2022-11-20T15:43:51.194Z,1.07
2022-11-20T15:46:53.857Z,1.40
2022-11-20T15:49:57.097Z,1.17
2022-11-20T15:53:01.249Z,0.90
2022-11-20T15:56:04.160Z,1.10
2022-11-20T15:59:06.783Z,1.08
2022-11-20T16:02:17.554Z,1.30
2022-11-20T16:05:24.035Z,1.40
2022-11-20T16:08:28.108Z,1.70
2022-11-20T16:11:30.738Z,1.60
2022-11-20T16:14:51.168Z,1.57
2022-11-20T16:17:53.769Z,1.90
2022-11-20T16:20:57.121Z,2.30
2022-11-20T16:24:01.854Z,2.47
2022-11-20T16:27:04.605Z,2.23
2022-11-20T16:30:08.509Z,1.97
2022-11-20T16:33:12.759Z,1.97
2022-11-20T16:36:16.755Z,1.53
2022-11-20T16:39:23.940Z,1.23
2022-11-20T16:42:26.829Z,1.50
2022-11-20T16:45:33.715Z,1.93
2022-11-20T16:48:36.628Z,1.20
2022-11-20T16:51:39.275Z,1.40
2022-11-20T16:54:43.274Z,3.43
2022-11-20T16:57:45.895Z,1.47
2022-11-20T17:00:51.614Z,1.60
2022-11-20T17:03:58.896Z,1.60
2022-11-20T17:07:07.621Z,1.50
2022-11-20T17:10:12.103Z,1.60
2022-11-20T17:13:14.744Z,1.60
2022-11-20T17:16:20.037Z,1.70
2022-11-20T17:19:22.704Z,1.60
2022-11-20T17:22:25.367Z,1.57
2022-11-20T17:25:29.325Z,1.53
2022-11-20T17:28:32.559Z,1.97
2022-11-20T17:31:35.887Z,1.90
2022-11-20T17:34:38.427Z,1.50
2022-11-20T17:37:41.025Z,2.23
2022-11-20T17:40:46.230Z,2.00
2022-11-20T17:43:49.519Z,2.30
2022-11-20T17:46:52.088Z,1.90
2022-11-20T17:49:55.423Z,1.63
2022-11-20T17:52:58.547Z,1.55
2022-11-20T17:56:20.259Z,2.30
2022-11-20T17:59:23.104Z,1.80
2022-11-20T18:02:25.916Z,1.98
2022-11-20T18:05:28.596Z,1.50
2022-11-20T18:08:31.432Z,1.50
2022-11-20T18:11:38.781Z,1.50
2022-11-20T18:14:43.509Z,1.80
2022-11-20T18:17:46.230Z,1.40
2022-11-20T18:20:54.228Z,1.20
2022-11-20T18:23:57.225Z,1.07
2022-11-20T18:27:01.709Z,1.35
2022-11-20T18:30:04.837Z,1.10
2022-11-20T18:33:07.924Z,1.20
2022-11-20T18:36:11.665Z,1.10
2022-11-20T18:42:36.649Z,1.47
2022-11-20T18:45:39.255Z,1.37
2022-11-20T18:48:41.973Z,1.00
2022-11-20T18:51:45.006Z,1.10
2022-11-20T18:54:47.629Z,1.40
2022-11-20T18:57:51.576Z,1.40
2022-11-20T19:00:54.254Z,1.30
2022-11-20T19:03:57.183Z,1.10
2022-11-20T19:06:59.894Z,1.00
2022-11-20T19:10:04.175Z,1.83
2022-11-20T19:13:08.506Z,0.80
2022-11-20T19:16:17.853Z,1.10
2022-11-20T19:19:20.530Z,1.20
2022-11-20T19:22:23.148Z,1.20
2022-11-20T19:25:25.878Z,0.80
2022-11-20T19:28:31.541Z,0.80
2022-11-20T19:31:34.636Z,1.00
2022-11-20T19:34:37.262Z,0.80
2022-11-20T19:37:39.828Z,0.90
2022-11-20T19:40:42.446Z,0.80
2022-11-20T19:43:49.604Z,0.60
2022-11-20T19:46:52.210Z,0.53
2022-11-20T19:49:54.891Z,0.60
2022-11-20T19:52:59.058Z,0.80
2022-11-20T19:56:02.052Z,0.70
2022-11-20T19:59:06.140Z,0.73
2022-11-20T20:02:11.437Z,0.80
2022-11-20T20:05:14.115Z,0.70
2022-11-20T20:08:17.250Z,0.70
2022-11-20T20:11:21.789Z,0.50
2022-11-20T20:14:26.131Z,0.50
2022-11-20T20:17:28.707Z,0.50
2022-11-20T20:20:31.785Z,0.70
2022-11-20T20:23:35.480Z,0.70
2022-11-20T20:26:38.544Z,0.80
2022-11-20T20:29:42.510Z,0.50
2022-11-20T20:32:45.205Z,0.50
2022-11-20T20:35:47.837Z,0.50
2022-11-20T20:38:53.541Z,0.80
2022-11-20T20:41:56.159Z,0.50
2022-11-20T20:45:10.971Z,0.30
2022-11-20T20:48:13.643Z,0.50
2022-11-20T20:51:16.312Z,0.67
2022-11-20T20:54:18.970Z,0.70
2022-11-20T20:57:22.738Z,1.00
2022-11-20T21:03:32.892Z,0.43
2022-11-20T21:06:35.717Z,0.83
2022-11-20T21:09:38.538Z,0.57
2022-11-20T21:12:41.095Z,1.00
2022-11-20T21:15:47.567Z,0.57
2022-11-20T21:18:50.393Z,0.43
2022-11-20T21:22:03.136Z,0.60
2022-11-20T21:25:06.486Z,0.57
2022-11-20T21:28:12.025Z,0.68
2022-11-20T21:31:21.883Z,0.63
2022-11-20T21:34:25.447Z,0.50
2022-11-20T21:37:28.378Z,0.60
2022-11-20T21:40:31.044Z,0.70
2022-11-20T21:43:33.735Z,0.50
2022-11-20T21:46:40.000Z,0.70
2022-11-20T21:49:42.680Z,0.60
2022-11-20T21:52:45.581Z,0.50
2022-11-20T21:55:54.255Z,0.50
2022-11-20T21:58:57.011Z,0.70
2022-11-20T22:02:01.139Z,0.70
2022-11-20T22:05:03.683Z,0.70
2022-11-20T22:08:07.077Z,0.60
2022-11-20T22:11:12.265Z,0.63
2022-11-20T22:14:24.747Z,0.50
2022-11-20T22:17:42.977Z,0.60
2022-11-20T22:20:45.627Z,0.70
2022-11-20T22:23:48.343Z,0.70
2022-11-20T22:26:51.040Z,0.60
2022-11-20T22:29:53.617Z,0.90
2022-11-20T22:32:57.592Z,0.83
2022-11-20T22:36:04.663Z,1.50
2022-11-20T22:39:07.714Z,0.47
2022-11-20T22:42:10.553Z,0.80
2022-11-20T22:45:14.128Z,0.60
2022-11-20T22:48:19.168Z,0.50
2022-11-20T22:51:23.141Z,0.57
2022-11-20T22:54:25.956Z,0.60
2022-11-20T22:57:28.723Z,0.50
2022-11-20T23:00:31.376Z,0.80
2022-11-20T23:03:35.364Z,0.50
2022-11-20T23:06:38.299Z,0.53
2022-11-20T23:09:40.848Z,0.52
2022-11-20T23:12:43.353Z,0.60
2022-11-20T23:15:46.016Z,0.53
2022-11-20T23:18:49.978Z,0.40
2022-11-20T23:21:52.570Z,0.50
2022-11-20T23:24:55.152Z,0.30
2022-11-20T23:27:57.826Z,0.30
2022-11-20T23:31:00.979Z,0.40
2022-11-20T23:34:05.065Z,0.50
2022-11-20T23:37:09.697Z,0.30
2022-11-20T23:40:12.936Z,0.40
2022-11-20T23:43:18.524Z,0.90
2022-11-20T23:46:21.161Z,0.57
2022-11-20T23:49:25.116Z,0.70
2022-11-20T23:52:27.692Z,0.47
2022-11-20T23:55:30.526Z,0.40
2022-11-20T23:58:34.708Z,0.45
